sensor_id;sensor_type;location;lat;lon;timestamp;P1;durP1;ratioP1;P2;durP2;ratioP2
5460;SDS011;2753;49.196;8.286;2024-03-23T00:53:15;15.40;;;8.70;;
5460;SDS011;2753;49.196;8.286;2024-03-23T00:55:43;12.17;;;7.90;;
5460;SDS011;2753;49.196;8.286;2024-03-23T00:58:09;12.50;;;7.00;;
5460;SDS011;2753;49.196;8.286;2024-03-23T01:00:35;12.43;;;7.07;;
5460;SDS011;2753;49.196;8.286;2024-03-23T01:03:00;13.43;;;8.17;;
5460;SDS011;2753;49.196;8.286;2024-03-23T01:05:26;10.40;;;7.30;;
5460;SDS011;2753;49.196;8.286;2024-03-23T01:07:52;15.73;;;7.40;;
5460;SDS011;2753;49.196;8.286;2024-03-23T01:10:17;12.87;;;7.33;;
5460;SDS011;2753;49.196;8.286;2024-03-23T01:12:43;14.63;;;7.70;;
5460;SDS011;2753;49.196;8.286;2024-03-23T01:15:09;19.40;;;6.93;;
5460;SDS011;2753;49.196;8.286;2024-03-23T01:17:34;13.60;;;8.73;;
5460;SDS011;2753;49.196;8.286;2024-03-23T01:20:00;15.53;;;8.20;;
5460;SDS011;2753;49.196;8.286;2024-03-23T01:22:26;13.30;;;8.00;;
5460;SDS011;2753;49.196;8.286;2024-03-23T01:24:51;12.23;;;6.87;;
5460;SDS011;2753;49.196;8.286;2024-03-23T01:27:17;12.03;;;8.30;;
5460;SDS011;2753;49.196;8.286;2024-03-23T01:29:43;10.43;;;8.10;;
5460;SDS011;2753;49.196;8.286;2024-03-23T01:32:09;13.00;;;7.10;;
5460;SDS011;2753;49.196;8.286;2024-03-23T01:34:35;10.13;;;7.10;;
5460;SDS011;2753;49.196;8.286;2024-03-23T01:37:00;11.90;;;7.63;;
5460;SDS011;2753;49.196;8.286;2024-03-23T01:39:26;13.57;;;8.23;;
5460;SDS011;2753;49.196;8.286;2024-03-23T01:41:52;12.50;;;7.23;;
5460;SDS011;2753;49.196;8.286;2024-03-23T01:44:17;13.70;;;7.10;;
5460;SDS011;2753;49.196;8.286;2024-03-23T01:46:43;10.73;;;7.60;;
5460;SDS011;2753;49.196;8.286;2024-03-23T01:49:09;11.17;;;7.17;;
5460;SDS011;2753;49.196;8.286;2024-03-23T01:51:35;10.50;;;7.40;;
5460;SDS011;2753;49.196;8.286;2024-03-23T01:54:01;14.23;;;7.53;;
5460;SDS011;2753;49.196;8.286;2024-03-23T01:56:29;10.90;;;7.90;;
5460;SDS011;2753;49.196;8.286;2024-03-23T01:58:55;9.53;;;6.80;;
5460;SDS011;2753;49.196;8.286;2024-03-23T02:01:21;10.47;;;6.03;;
5460;SDS011;2753;49.196;8.286;2024-03-23T02:03:47;10.70;;;7.00;;
5460;SDS011;2753;49.196;8.286;2024-03-23T02:06:12;9.67;;;6.73;;
5460;SDS011;2753;49.196;8.286;2024-03-23T02:08:41;9.73;;;6.10;;
5460;SDS011;2753;49.196;8.286;2024-03-23T02:11:08;10.57;;;6.93;;
5460;SDS011;2753;49.196;8.286;2024-03-23T02:13:34;11.50;;;6.17;;
5460;SDS011;2753;49.196;8.286;2024-03-23T02:16:00;13.30;;;6.30;;
5460;SDS011;2753;49.196;8.286;2024-03-23T02:18:25;8.03;;;5.53;;
5460;SDS011;2753;49.196;8.286;2024-03-23T02:20:51;8.40;;;5.90;;
5460;SDS011;2753;49.196;8.286;2024-03-23T02:23:17;14.40;;;9.13;;
5460;SDS011;2753;49.196;8.286;2024-03-23T02:25:43;8.40;;;5.87;;
5460;SDS011;2753;49.196;8.286;2024-03-23T02:28:09;14.67;;;6.23;;
5460;SDS011;2753;49.196;8.286;2024-03-23T02:30:36;9.90;;;6.83;;
5460;SDS011;2753;49.196;8.286;2024-03-23T02:33:01;9.33;;;6.27;;
5460;SDS011;2753;49.196;8.286;2024-03-23T02:35:27;11.10;;;6.70;;
5460;SDS011;2753;49.196;8.286;2024-03-23T02:37:53;12.30;;;6.27;;
5460;SDS011;2753;49.196;8.286;2024-03-23T02:40:22;6.50;;;5.90;;
5460;SDS011;2753;49.196;8.286;2024-03-23T02:42:48;9.43;;;6.80;;
5460;SDS011;2753;49.196;8.286;2024-03-23T02:45:14;10.13;;;7.70;;
5460;SDS011;2753;49.196;8.286;2024-03-23T02:47:40;18.73;;;6.47;;
5460;SDS011;2753;49.196;8.286;2024-03-23T02:50:09;9.00;;;6.70;;
5460;SDS011;2753;49.196;8.286;2024-03-23T02:52:35;12.00;;;7.77;;
5460;SDS011;2753;49.196;8.286;2024-03-23T02:55:01;9.97;;;7.63;;
5460;SDS011;2753;49.196;8.286;2024-03-23T02:57:27;18.83;;;7.13;;
5460;SDS011;2753;49.196;8.286;2024-03-23T02:59:53;12.17;;;7.13;;
5460;SDS011;2753;49.196;8.286;2024-03-23T03:02:19;13.77;;;8.80;;
5460;SDS011;2753;49.196;8.286;2024-03-23T03:04:46;16.33;;;9.17;;
5460;SDS011;2753;49.196;8.286;2024-03-23T03:07:11;12.90;;;9.40;;
5460;SDS011;2753;49.196;8.286;2024-03-23T03:09:37;14.53;;;9.23;;
5460;SDS011;2753;49.196;8.286;2024-03-23T03:12:04;17.07;;;10.50;;
5460;SDS011;2753;49.196;8.286;2024-03-23T03:14:33;20.83;;;10.50;;
5460;SDS011;2753;49.196;8.286;2024-03-23T03:16:59;18.87;;;11.30;;
5460;SDS011;2753;49.196;8.286;2024-03-23T03:19:24;16.53;;;10.33;;
5460;SDS011;2753;49.196;8.286;2024-03-23T03:21:50;16.93;;;11.13;;
5460;SDS011;2753;49.196;8.286;2024-03-23T03:24:16;13.90;;;10.00;;
5460;SDS011;2753;49.196;8.286;2024-03-23T03:26:42;17.87;;;10.70;;
5460;SDS011;2753;49.196;8.286;2024-03-23T03:29:07;12.50;;;9.40;;
5460;SDS011;2753;49.196;8.286;2024-03-23T03:31:33;16.07;;;9.20;;
5460;SDS011;2753;49.196;8.286;2024-03-23T03:33:59;14.03;;;9.60;;
5460;SDS011;2753;49.196;8.286;2024-03-23T03:36:24;18.07;;;9.87;;
5460;SDS011;2753;49.196;8.286;2024-03-23T03:38:50;17.87;;;10.20;;
5460;SDS011;2753;49.196;8.286;2024-03-23T03:41:16;18.53;;;10.03;;
5460;SDS011;2753;49.196;8.286;2024-03-23T03:43:41;17.27;;;11.00;;
5460;SDS011;2753;49.196;8.286;2024-03-23T03:46:10;14.97;;;10.13;;
5460;SDS011;2753;49.196;8.286;2024-03-23T03:48:36;21.20;;;12.40;;
5460;SDS011;2753;49.196;8.286;2024-03-23T03:51:02;21.53;;;11.43;;
5460;SDS011;2753;49.196;8.286;2024-03-23T03:53:28;24.10;;;12.30;;
5460;SDS011;2753;49.196;8.286;2024-03-23T03:55:54;27.37;;;15.70;;
5460;SDS011;2753;49.196;8.286;2024-03-23T03:58:22;21.70;;;14.33;;
5460;SDS011;2753;49.196;8.286;2024-03-23T04:00:48;26.03;;;15.83;;
5460;SDS011;2753;49.196;8.286;2024-03-23T04:03:14;22.33;;;12.90;;
5460;SDS011;2753;49.196;8.286;2024-03-23T04:05:39;22.07;;;11.80;;
5460;SDS011;2753;49.196;8.286;2024-03-23T04:08:07;21.00;;;11.60;;
5460;SDS011;2753;49.196;8.286;2024-03-23T04:10:32;19.77;;;12.27;;
5460;SDS011;2753;49.196;8.286;2024-03-23T04:12:58;16.60;;;10.83;;
5460;SDS011;2753;49.196;8.286;2024-03-23T04:15:24;18.40;;;10.80;;
5460;SDS011;2753;49.196;8.286;2024-03-23T04:17:49;16.20;;;10.30;;
5460;SDS011;2753;49.196;8.286;2024-03-23T04:20:15;12.40;;;8.90;;
5460;SDS011;2753;49.196;8.286;2024-03-23T04:22:42;13.70;;;9.07;;
5460;SDS011;2753;49.196;8.286;2024-03-23T04:25:08;16.10;;;7.10;;
5460;SDS011;2753;49.196;8.286;2024-03-23T04:27:35;19.10;;;7.80;;
5460;SDS011;2753;49.196;8.286;2024-03-23T04:30:02;11.63;;;7.43;;
5460;SDS011;2753;49.196;8.286;2024-03-23T04:32:29;9.97;;;7.60;;
5460;SDS011;2753;49.196;8.286;2024-03-23T04:34:55;14.43;;;7.00;;
5460;SDS011;2753;49.196;8.286;2024-03-23T04:37:21;18.27;;;7.13;;
5460;SDS011;2753;49.196;8.286;2024-03-23T04:39:47;11.63;;;6.10;;
5460;SDS011;2753;49.196;8.286;2024-03-23T04:42:14;6.90;;;6.03;;
5460;SDS011;2753;49.196;8.286;2024-03-23T04:44:41;6.63;;;5.87;;
5460;SDS011;2753;49.196;8.286;2024-03-23T04:47:06;6.70;;;5.60;;
5460;SDS011;2753;49.196;8.286;2024-03-23T04:49:32;11.40;;;3.80;;
5460;SDS011;2753;49.196;8.286;2024-03-23T04:51:58;10.67;;;3.93;;
5460;SDS011;2753;49.196;8.286;2024-03-23T04:54:24;4.27;;;3.50;;
5460;SDS011;2753;49.196;8.286;2024-03-23T04:56:49;8.23;;;3.87;;
5460;SDS011;2753;49.196;8.286;2024-03-23T04:59:15;3.17;;;2.80;;
5460;SDS011;2753;49.196;8.286;2024-03-23T05:01:41;5.30;;;2.97;;
5460;SDS011;2753;49.196;8.286;2024-03-23T05:04:08;4.43;;;2.93;;
5460;SDS011;2753;49.196;8.286;2024-03-23T05:06:34;5.60;;;3.60;;
5460;SDS011;2753;49.196;8.286;2024-03-23T05:09:00;4.40;;;3.20;;
5460;SDS011;2753;49.196;8.286;2024-03-23T05:11:32;2.90;;;1.97;;
5460;SDS011;2753;49.196;8.286;2024-03-23T05:13:58;2.53;;;2.40;;
5460;SDS011;2753;49.196;8.286;2024-03-23T05:16:24;5.70;;;2.60;;
5460;SDS011;2753;49.196;8.286;2024-03-23T05:18:52;3.03;;;2.83;;
5460;SDS011;2753;49.196;8.286;2024-03-23T05:21:18;2.10;;;2.00;;
5460;SDS011;2753;49.196;8.286;2024-03-23T05:23:44;2.27;;;1.97;;
5460;SDS011;2753;49.196;8.286;2024-03-23T05:26:09;2.80;;;2.57;;
5460;SDS011;2753;49.196;8.286;2024-03-23T05:28:35;2.90;;;2.27;;
5460;SDS011;2753;49.196;8.286;2024-03-23T05:31:01;2.70;;;2.37;;
5460;SDS011;2753;49.196;8.286;2024-03-23T05:33:27;2.00;;;1.80;;
5460;SDS011;2753;49.196;8.286;2024-03-23T05:36:00;1.80;;;1.70;;
5460;SDS011;2753;49.196;8.286;2024-03-23T05:38:26;2.00;;;1.90;;
5460;SDS011;2753;49.196;8.286;2024-03-23T05:40:56;1.77;;;1.53;;
5460;SDS011;2753;49.196;8.286;2024-03-23T05:43:22;1.40;;;1.27;;
5460;SDS011;2753;49.196;8.286;2024-03-23T05:45:55;1.33;;;1.23;;
5460;SDS011;2753;49.196;8.286;2024-03-23T05:48:21;0.93;;;0.93;;
5460;SDS011;2753;49.196;8.286;2024-03-23T05:50:47;1.67;;;1.20;;
5460;SDS011;2753;49.196;8.286;2024-03-23T05:53:17;1.57;;;1.30;;
5460;SDS011;2753;49.196;8.286;2024-03-23T05:55:45;1.93;;;0.87;;
5460;SDS011;2753;49.196;8.286;2024-03-23T05:58:12;1.33;;;1.23;;
5460;SDS011;2753;49.196;8.286;2024-03-23T06:00:39;0.83;;;0.83;;
5460;SDS011;2753;49.196;8.286;2024-03-23T06:03:05;1.00;;;0.90;;
5460;SDS011;2753;49.196;8.286;2024-03-23T06:05:31;1.00;;;1.00;;
5460;SDS011;2753;49.196;8.286;2024-03-23T06:07:57;0.60;;;0.60;;
5460;SDS011;2753;49.196;8.286;2024-03-23T06:10:22;0.90;;;0.90;;
5460;SDS011;2753;49.196;8.286;2024-03-23T06:12:48;0.60;;;0.50;;
5460;SDS011;2753;49.196;8.286;2024-03-23T06:15:16;0.50;;;0.50;;
5460;SDS011;2753;49.196;8.286;2024-03-23T06:17:42;0.60;;;0.60;;
5460;SDS011;2753;49.196;8.286;2024-03-23T06:20:08;0.60;;;0.60;;
5460;SDS011;2753;49.196;8.286;2024-03-23T06:22:35;1.57;;;0.50;;
5460;SDS011;2753;49.196;8.286;2024-03-23T06:25:00;0.50;;;0.40;;
5460;SDS011;2753;49.196;8.286;2024-03-23T06:27:27;0.50;;;0.50;;
5460;SDS011;2753;49.196;8.286;2024-03-23T06:29:52;1.00;;;0.50;;
5460;SDS011;2753;49.196;8.286;2024-03-23T06:32:18;1.03;;;0.60;;
5460;SDS011;2753;49.196;8.286;2024-03-23T06:34:44;0.53;;;0.50;;
5460;SDS011;2753;49.196;8.286;2024-03-23T06:37:10;1.07;;;0.63;;
5460;SDS011;2753;49.196;8.286;2024-03-23T06:39:36;1.90;;;0.50;;
5460;SDS011;2753;49.196;8.286;2024-03-23T06:42:02;0.80;;;0.40;;
5460;SDS011;2753;49.196;8.286;2024-03-23T06:44:28;0.73;;;0.50;;
5460;SDS011;2753;49.196;8.286;2024-03-23T06:46:55;1.57;;;0.60;;
5460;SDS011;2753;49.196;8.286;2024-03-23T06:49:23;0.60;;;0.37;;
5460;SDS011;2753;49.196;8.286;2024-03-23T06:51:49;0.50;;;0.40;;
5460;SDS011;2753;49.196;8.286;2024-03-23T06:54:16;0.57;;;0.50;;
5460;SDS011;2753;49.196;8.286;2024-03-23T06:56:43;0.50;;;0.43;;
5460;SDS011;2753;49.196;8.286;2024-03-23T06:59:09;1.10;;;1.00;;
5460;SDS011;2753;49.196;8.286;2024-03-23T07:01:35;1.63;;;0.33;;
5460;SDS011;2753;49.196;8.286;2024-03-23T07:04:01;0.50;;;0.30;;
5460;SDS011;2753;49.196;8.286;2024-03-23T07:06:27;0.40;;;0.30;;
5460;SDS011;2753;49.196;8.286;2024-03-23T07:08:53;0.50;;;0.50;;
5460;SDS011;2753;49.196;8.286;2024-03-23T07:11:19;3.33;;;0.50;;
5460;SDS011;2753;49.196;8.286;2024-03-23T07:13:45;0.50;;;0.40;;
5460;SDS011;2753;49.196;8.286;2024-03-23T07:16:12;0.47;;;0.30;;
5460;SDS011;2753;49.196;8.286;2024-03-23T07:18:38;0.50;;;0.40;;
5460;SDS011;2753;49.196;8.286;2024-03-23T07:21:04;0.50;;;0.50;;
5460;SDS011;2753;49.196;8.286;2024-03-23T07:23:31;0.60;;;0.43;;
5460;SDS011;2753;49.196;8.286;2024-03-23T07:25:58;0.50;;;0.30;;
5460;SDS011;2753;49.196;8.286;2024-03-23T07:28:24;1.60;;;0.40;;
5460;SDS011;2753;49.196;8.286;2024-03-23T07:31:06;0.87;;;0.40;;
5460;SDS011;2753;49.196;8.286;2024-03-23T07:33:46;0.73;;;0.40;;
5460;SDS011;2753;49.196;8.286;2024-03-23T07:36:12;3.10;;;1.07;;
5460;SDS011;2753;49.196;8.286;2024-03-23T07:38:41;1.20;;;1.10;;
5460;SDS011;2753;49.196;8.286;2024-03-23T07:41:10;2.63;;;1.00;;
5460;SDS011;2753;49.196;8.286;2024-03-23T07:43:45;5.60;;;2.00;;
5460;SDS011;2753;49.196;8.286;2024-03-23T07:46:11;3.10;;;1.20;;
5460;SDS011;2753;49.196;8.286;2024-03-23T07:48:38;4.47;;;1.07;;
5460;SDS011;2753;49.196;8.286;2024-03-23T07:51:06;2.60;;;1.17;;
5460;SDS011;2753;49.196;8.286;2024-03-23T07:53:33;4.17;;;1.60;;
5460;SDS011;2753;49.196;8.286;2024-03-23T07:56:00;4.50;;;1.40;;
5460;SDS011;2753;49.196;8.286;2024-03-23T07:58:27;5.13;;;1.40;;
5460;SDS011;2753;49.196;8.286;2024-03-23T08:00:54;3.87;;;1.57;;
5460;SDS011;2753;49.196;8.286;2024-03-23T08:03:20;3.43;;;1.30;;
5460;SDS011;2753;49.196;8.286;2024-03-23T08:05:46;5.50;;;1.40;;
5460;SDS011;2753;49.196;8.286;2024-03-23T08:08:12;5.23;;;2.17;;
5460;SDS011;2753;49.196;8.286;2024-03-23T08:10:51;11.07;;;2.03;;
5460;SDS011;2753;49.196;8.286;2024-03-23T08:13:18;6.80;;;2.00;;
5460;SDS011;2753;49.196;8.286;2024-03-23T08:15:44;12.50;;;3.40;;
5460;SDS011;2753;49.196;8.286;2024-03-23T08:18:13;5.10;;;2.10;;
5460;SDS011;2753;49.196;8.286;2024-03-23T08:20:40;3.27;;;1.50;;
5460;SDS011;2753;49.196;8.286;2024-03-23T08:23:06;9.60;;;2.70;;
5460;SDS011;2753;49.196;8.286;2024-03-23T08:25:33;11.07;;;3.27;;
5460;SDS011;2753;49.196;8.286;2024-03-23T08:27:59;4.53;;;1.70;;
5460;SDS011;2753;49.196;8.286;2024-03-23T08:30:25;10.87;;;2.77;;
5460;SDS011;2753;49.196;8.286;2024-03-23T08:32:51;8.63;;;3.03;;
5460;SDS011;2753;49.196;8.286;2024-03-23T08:35:20;7.57;;;2.13;;
5460;SDS011;2753;49.196;8.286;2024-03-23T08:37:45;7.67;;;2.33;;
5460;SDS011;2753;49.196;8.286;2024-03-23T08:40:11;11.73;;;2.30;;
5460;SDS011;2753;49.196;8.286;2024-03-23T08:42:37;9.47;;;2.67;;
5460;SDS011;2753;49.196;8.286;2024-03-23T08:45:03;7.70;;;2.40;;
5460;SDS011;2753;49.196;8.286;2024-03-23T08:47:29;10.40;;;3.10;;
5460;SDS011;2753;49.196;8.286;2024-03-23T08:49:55;12.47;;;3.43;;
5460;SDS011;2753;49.196;8.286;2024-03-23T08:52:22;9.20;;;3.10;;
5460;SDS011;2753;49.196;8.286;2024-03-23T08:54:48;9.00;;;3.40;;
5460;SDS011;2753;49.196;8.286;2024-03-23T08:57:13;5.67;;;3.10;;
5460;SDS011;2753;49.196;8.286;2024-03-23T08:59:39;6.83;;;3.37;;
5460;SDS011;2753;49.196;8.286;2024-03-23T09:02:05;10.57;;;2.90;;
5460;SDS011;2753;49.196;8.286;2024-03-23T09:04:30;10.70;;;2.40;;
5460;SDS011;2753;49.196;8.286;2024-03-23T09:06:56;7.83;;;2.53;;
5460;SDS011;2753;49.196;8.286;2024-03-23T09:09:24;8.13;;;2.53;;
5460;SDS011;2753;49.196;8.286;2024-03-23T09:11:49;8.17;;;3.47;;
5460;SDS011;2753;49.196;8.286;2024-03-23T09:14:15;6.73;;;2.37;;
5460;SDS011;2753;49.196;8.286;2024-03-23T09:16:40;11.30;;;2.57;;
5460;SDS011;2753;49.196;8.286;2024-03-23T09:19:06;7.63;;;2.40;;
5460;SDS011;2753;49.196;8.286;2024-03-23T09:21:32;3.80;;;2.37;;
5460;SDS011;2753;49.196;8.286;2024-03-23T09:23:58;7.90;;;3.10;;
5460;SDS011;2753;49.196;8.286;2024-03-23T09:26:23;6.10;;;2.30;;
5460;SDS011;2753;49.196;8.286;2024-03-23T09:28:49;9.07;;;3.20;;
5460;SDS011;2753;49.196;8.286;2024-03-23T09:31:15;7.83;;;2.77;;
5460;SDS011;2753;49.196;8.286;2024-03-23T09:33:43;14.60;;;3.40;;
5460;SDS011;2753;49.196;8.286;2024-03-23T09:36:09;6.03;;;2.90;;
5460;SDS011;2753;49.196;8.286;2024-03-23T09:38:35;11.77;;;2.90;;
5460;SDS011;2753;49.196;8.286;2024-03-23T09:41:06;5.03;;;2.43;;
5460;SDS011;2753;49.196;8.286;2024-03-23T09:43:32;7.10;;;2.63;;
5460;SDS011;2753;49.196;8.286;2024-03-23T09:45:58;12.47;;;3.00;;
5460;SDS011;2753;49.196;8.286;2024-03-23T09:48:24;9.30;;;2.90;;
5460;SDS011;2753;49.196;8.286;2024-03-23T09:50:53;8.37;;;3.40;;
5460;SDS011;2753;49.196;8.286;2024-03-23T09:53:18;10.03;;;3.20;;
5460;SDS011;2753;49.196;8.286;2024-03-23T09:55:44;9.10;;;3.10;;
5460;SDS011;2753;49.196;8.286;2024-03-23T09:58:14;8.13;;;2.87;;
5460;SDS011;2753;49.196;8.286;2024-03-23T10:00:42;9.57;;;2.97;;
5460;SDS011;2753;49.196;8.286;2024-03-23T10:03:08;12.93;;;2.83;;
5460;SDS011;2753;49.196;8.286;2024-03-23T10:05:36;17.40;;;4.40;;
5460;SDS011;2753;49.196;8.286;2024-03-23T10:10:43;17.60;;;6.27;;
5460;SDS011;2753;49.196;8.286;2024-03-23T10:13:10;4.63;;;3.10;;
5460;SDS011;2753;49.196;8.286;2024-03-23T10:15:42;5.30;;;3.27;;
5460;SDS011;2753;49.196;8.286;2024-03-23T10:18:20;12.63;;;3.80;;
5460;SDS011;2753;49.196;8.286;2024-03-23T10:23:30;3.80;;;2.77;;
5460;SDS011;2753;49.196;8.286;2024-03-23T10:28:58;25.50;;;3.57;;
5460;SDS011;2753;49.196;8.286;2024-03-23T10:31:36;11.43;;;2.93;;
5460;SDS011;2753;49.196;8.286;2024-03-23T10:34:02;6.13;;;2.77;;
5460;SDS011;2753;49.196;8.286;2024-03-23T10:36:29;7.60;;;2.77;;
5460;SDS011;2753;49.196;8.286;2024-03-23T10:38:55;10.07;;;3.97;;
5460;SDS011;2753;49.196;8.286;2024-03-23T10:41:28;11.03;;;2.53;;
5460;SDS011;2753;49.196;8.286;2024-03-23T10:43:56;6.60;;;3.37;;
5460;SDS011;2753;49.196;8.286;2024-03-23T10:46:24;7.57;;;2.80;;
5460;SDS011;2753;49.196;8.286;2024-03-23T10:48:50;5.53;;;2.80;;
5460;SDS011;2753;49.196;8.286;2024-03-23T10:51:16;3.83;;;2.73;;
5460;SDS011;2753;49.196;8.286;2024-03-23T10:53:42;7.00;;;2.90;;
5460;SDS011;2753;49.196;8.286;2024-03-23T10:56:07;4.50;;;2.43;;
5460;SDS011;2753;49.196;8.286;2024-03-23T10:58:44;4.70;;;2.30;;
5460;SDS011;2753;49.196;8.286;2024-03-23T11:01:15;8.53;;;2.47;;
5460;SDS011;2753;49.196;8.286;2024-03-23T11:03:47;8.70;;;2.50;;
5460;SDS011;2753;49.196;8.286;2024-03-23T11:09:02;4.57;;;1.90;;
5460;SDS011;2753;49.196;8.286;2024-03-23T11:11:28;5.63;;;2.33;;
5460;SDS011;2753;49.196;8.286;2024-03-23T11:13:57;6.63;;;2.10;;
5460;SDS011;2753;49.196;8.286;2024-03-23T11:16:23;2.90;;;1.43;;
5460;SDS011;2753;49.196;8.286;2024-03-23T11:18:55;5.97;;;2.33;;
5460;SDS011;2753;49.196;8.286;2024-03-23T11:21:59;5.17;;;1.60;;
5460;SDS011;2753;49.196;8.286;2024-03-23T11:24:26;3.17;;;1.30;;
5460;SDS011;2753;49.196;8.286;2024-03-23T11:26:52;2.63;;;1.57;;
5460;SDS011;2753;49.196;8.286;2024-03-23T11:29:17;3.97;;;1.60;;
5460;SDS011;2753;49.196;8.286;2024-03-23T11:31:47;5.40;;;1.80;;
5460;SDS011;2753;49.196;8.286;2024-03-23T11:34:15;5.20;;;1.67;;
5460;SDS011;2753;49.196;8.286;2024-03-23T11:36:44;1.97;;;1.47;;
5460;SDS011;2753;49.196;8.286;2024-03-23T11:39:17;4.57;;;1.10;;
5460;SDS011;2753;49.196;8.286;2024-03-23T11:44:19;4.83;;;1.90;;
5460;SDS011;2753;49.196;8.286;2024-03-23T11:46:50;5.47;;;1.90;;
5460;SDS011;2753;49.196;8.286;2024-03-23T11:49:20;5.70;;;2.03;;
5460;SDS011;2753;49.196;8.286;2024-03-23T11:51:47;10.13;;;1.90;;
5460;SDS011;2753;49.196;8.286;2024-03-23T11:54:13;6.03;;;1.37;;
5460;SDS011;2753;49.196;8.286;2024-03-23T11:56:39;6.53;;;2.10;;
5460;SDS011;2753;49.196;8.286;2024-03-23T11:59:06;6.93;;;1.80;;
5460;SDS011;2753;49.196;8.286;2024-03-23T12:01:32;2.60;;;1.60;;
5460;SDS011;2753;49.196;8.286;2024-03-23T12:03:58;3.63;;;1.97;;
5460;SDS011;2753;49.196;8.286;2024-03-23T12:06:24;5.77;;;1.63;;
5460;SDS011;2753;49.196;8.286;2024-03-23T12:08:50;4.97;;;2.07;;
5460;SDS011;2753;49.196;8.286;2024-03-23T12:11:16;3.40;;;1.57;;
5460;SDS011;2753;49.196;8.286;2024-03-23T12:13:43;3.60;;;1.67;;
5460;SDS011;2753;49.196;8.286;2024-03-23T12:18:49;10.23;;;1.93;;
5460;SDS011;2753;49.196;8.286;2024-03-23T12:21:18;3.83;;;1.40;;
5460;SDS011;2753;49.196;8.286;2024-03-23T12:23:44;11.63;;;1.50;;
5460;SDS011;2753;49.196;8.286;2024-03-23T12:26:11;4.60;;;1.90;;
5460;SDS011;2753;49.196;8.286;2024-03-23T12:28:37;4.00;;;1.43;;
5460;SDS011;2753;49.196;8.286;2024-03-23T12:31:03;2.70;;;1.50;;
5460;SDS011;2753;49.196;8.286;2024-03-23T12:33:30;13.33;;;2.20;;
5460;SDS011;2753;49.196;8.286;2024-03-23T12:35:56;5.50;;;1.93;;
5460;SDS011;2753;49.196;8.286;2024-03-23T12:38:22;9.20;;;1.63;;
5460;SDS011;2753;49.196;8.286;2024-03-23T12:40:50;5.27;;;2.03;;
5460;SDS011;2753;49.196;8.286;2024-03-23T12:43:17;7.83;;;1.97;;
5460;SDS011;2753;49.196;8.286;2024-03-23T12:45:46;15.23;;;1.30;;
5460;SDS011;2753;49.196;8.286;2024-03-23T12:48:12;2.37;;;1.13;;
5460;SDS011;2753;49.196;8.286;2024-03-23T12:50:38;5.93;;;1.13;;
5460;SDS011;2753;49.196;8.286;2024-03-23T12:53:06;7.73;;;1.10;;
5460;SDS011;2753;49.196;8.286;2024-03-23T12:55:40;1.83;;;0.90;;
5460;SDS011;2753;49.196;8.286;2024-03-23T12:58:11;4.23;;;1.10;;
5460;SDS011;2753;49.196;8.286;2024-03-23T13:00:45;6.63;;;0.70;;
5460;SDS011;2753;49.196;8.286;2024-03-23T13:03:13;2.60;;;0.87;;
5460;SDS011;2753;49.196;8.286;2024-03-23T13:05:40;1.73;;;0.67;;
5460;SDS011;2753;49.196;8.286;2024-03-23T13:08:09;1.37;;;0.80;;
5460;SDS011;2753;49.196;8.286;2024-03-23T13:10:39;1.37;;;0.90;;
5460;SDS011;2753;49.196;8.286;2024-03-23T13:13:12;1.27;;;0.67;;
5460;SDS011;2753;49.196;8.286;2024-03-23T13:15:56;1.83;;;1.10;;
5460;SDS011;2753;49.196;8.286;2024-03-23T13:18:31;4.10;;;0.97;;
5460;SDS011;2753;49.196;8.286;2024-03-23T13:20:58;5.07;;;0.80;;
5460;SDS011;2753;49.196;8.286;2024-03-23T13:23:29;2.57;;;1.20;;
5460;SDS011;2753;49.196;8.286;2024-03-23T13:26:08;0.60;;;0.47;;
5460;SDS011;2753;49.196;8.286;2024-03-23T13:28:37;2.20;;;0.90;;
5460;SDS011;2753;49.196;8.286;2024-03-23T13:31:02;2.30;;;1.00;;
5460;SDS011;2753;49.196;8.286;2024-03-23T13:33:34;3.20;;;0.90;;
5460;SDS011;2753;49.196;8.286;2024-03-23T13:36:07;2.70;;;1.20;;
5460;SDS011;2753;49.196;8.286;2024-03-23T13:38:38;3.93;;;1.70;;
5460;SDS011;2753;49.196;8.286;2024-03-23T13:41:09;2.13;;;1.10;;
5460;SDS011;2753;49.196;8.286;2024-03-23T13:43:42;1.97;;;1.23;;
5460;SDS011;2753;49.196;8.286;2024-03-23T13:46:08;3.43;;;1.10;;
5460;SDS011;2753;49.196;8.286;2024-03-23T13:48:33;5.90;;;2.20;;
5460;SDS011;2753;49.196;8.286;2024-03-23T13:51:00;2.20;;;0.80;;
5460;SDS011;2753;49.196;8.286;2024-03-23T13:53:31;0.60;;;0.60;;
5460;SDS011;2753;49.196;8.286;2024-03-23T13:56:00;0.77;;;0.57;;
5460;SDS011;2753;49.196;8.286;2024-03-23T13:58:28;0.80;;;0.80;;
5460;SDS011;2753;49.196;8.286;2024-03-23T14:00:59;1.57;;;1.10;;
5460;SDS011;2753;49.196;8.286;2024-03-23T14:03:30;0.70;;;0.63;;
5460;SDS011;2753;49.196;8.286;2024-03-23T14:06:10;1.57;;;0.67;;
5460;SDS011;2753;49.196;8.286;2024-03-23T14:08:44;1.90;;;0.63;;
5460;SDS011;2753;49.196;8.286;2024-03-23T14:11:10;2.60;;;0.53;;
5460;SDS011;2753;49.196;8.286;2024-03-23T14:13:36;1.13;;;0.90;;
5460;SDS011;2753;49.196;8.286;2024-03-23T14:16:15;12.70;;;1.30;;
5460;SDS011;2753;49.196;8.286;2024-03-23T14:18:46;7.60;;;0.90;;
5460;SDS011;2753;49.196;8.286;2024-03-23T14:21:27;2.20;;;1.00;;
5460;SDS011;2753;49.196;8.286;2024-03-23T14:24:01;2.73;;;1.83;;
5460;SDS011;2753;49.196;8.286;2024-03-23T14:26:45;6.70;;;1.30;;
5460;SDS011;2753;49.196;8.286;2024-03-23T14:29:13;1.23;;;1.13;;
5460;SDS011;2753;49.196;8.286;2024-03-23T14:31:42;1.80;;;1.00;;
5460;SDS011;2753;49.196;8.286;2024-03-23T14:34:07;2.50;;;1.00;;
5460;SDS011;2753;49.196;8.286;2024-03-23T14:36:36;1.70;;;0.90;;
5460;SDS011;2753;49.196;8.286;2024-03-23T14:39:05;4.03;;;0.87;;
5460;SDS011;2753;49.196;8.286;2024-03-23T14:41:38;3.60;;;1.23;;
5460;SDS011;2753;49.196;8.286;2024-03-23T14:44:13;4.10;;;0.77;;
5460;SDS011;2753;49.196;8.286;2024-03-23T14:46:41;3.23;;;1.00;;
5460;SDS011;2753;49.196;8.286;2024-03-23T14:49:14;2.40;;;1.00;;
5460;SDS011;2753;49.196;8.286;2024-03-23T14:51:43;4.20;;;1.20;;
5460;SDS011;2753;49.196;8.286;2024-03-23T14:54:12;1.77;;;0.90;;
5460;SDS011;2753;49.196;8.286;2024-03-23T14:56:38;2.13;;;1.07;;
5460;SDS011;2753;49.196;8.286;2024-03-23T14:59:07;2.93;;;0.60;;
5460;SDS011;2753;49.196;8.286;2024-03-23T15:01:42;3.93;;;0.77;;
5460;SDS011;2753;49.196;8.286;2024-03-23T15:04:07;3.23;;;1.07;;
5460;SDS011;2753;49.196;8.286;2024-03-23T15:06:44;4.40;;;1.10;;
5460;SDS011;2753;49.196;8.286;2024-03-23T15:09:14;0.80;;;0.77;;
5460;SDS011;2753;49.196;8.286;2024-03-23T15:11:43;4.17;;;1.10;;
5460;SDS011;2753;49.196;8.286;2024-03-23T15:14:08;6.67;;;1.73;;
5460;SDS011;2753;49.196;8.286;2024-03-23T15:16:38;2.07;;;1.37;;
5460;SDS011;2753;49.196;8.286;2024-03-23T15:19:07;4.00;;;1.30;;
5460;SDS011;2753;49.196;8.286;2024-03-23T15:24:29;6.00;;;1.40;;
5460;SDS011;2753;49.196;8.286;2024-03-23T15:26:59;2.80;;;1.30;;
5460;SDS011;2753;49.196;8.286;2024-03-23T15:29:28;3.07;;;1.10;;
5460;SDS011;2753;49.196;8.286;2024-03-23T15:31:59;6.10;;;1.30;;
5460;SDS011;2753;49.196;8.286;2024-03-23T15:34:28;5.17;;;1.30;;
5460;SDS011;2753;49.196;8.286;2024-03-23T15:37:10;9.93;;;1.70;;
5460;SDS011;2753;49.196;8.286;2024-03-23T15:39:43;5.40;;;1.03;;
5460;SDS011;2753;49.196;8.286;2024-03-23T15:42:18;4.10;;;0.60;;
5460;SDS011;2753;49.196;8.286;2024-03-23T15:44:43;6.93;;;1.23;;
5460;SDS011;2753;49.196;8.286;2024-03-23T15:47:15;3.23;;;1.47;;
5460;SDS011;2753;49.196;8.286;2024-03-23T15:49:44;0.80;;;0.80;;
5460;SDS011;2753;49.196;8.286;2024-03-23T15:52:23;0.97;;;0.70;;
5460;SDS011;2753;49.196;8.286;2024-03-23T15:54:54;2.33;;;1.17;;
5460;SDS011;2753;49.196;8.286;2024-03-23T15:57:22;5.70;;;1.47;;
5460;SDS011;2753;49.196;8.286;2024-03-23T15:59:54;1.73;;;0.97;;
5460;SDS011;2753;49.196;8.286;2024-03-23T16:02:34;3.17;;;1.57;;
5460;SDS011;2753;49.196;8.286;2024-03-23T16:05:11;1.53;;;1.20;;
5460;SDS011;2753;49.196;8.286;2024-03-23T16:07:48;1.73;;;1.30;;
5460;SDS011;2753;49.196;8.286;2024-03-23T16:10:25;1.93;;;0.77;;
5460;SDS011;2753;49.196;8.286;2024-03-23T16:12:51;0.97;;;0.67;;
5460;SDS011;2753;49.196;8.286;2024-03-23T16:15:20;2.60;;;1.27;;
5460;SDS011;2753;49.196;8.286;2024-03-23T16:17:46;4.63;;;1.10;;
5460;SDS011;2753;49.196;8.286;2024-03-23T16:20:14;3.70;;;2.33;;
5460;SDS011;2753;49.196;8.286;2024-03-23T16:22:42;3.63;;;1.67;;
5460;SDS011;2753;49.196;8.286;2024-03-23T16:25:15;1.77;;;1.23;;